Latest Weather Observations for Grafton Airport

IDN60801

Issued at 12:03 am EST Saturday 23 May 2015 (issued every 30 minutes, with the page automatically refreshed every 10 minutes)

About weather observations | Map of weather stations | Latest weather observations for NSW | Other Formats
Station Details ID: 058161 Name: GRAFTON AIRPORT AWS Lat: -29.76 Lon: 153.03 Height: 25.09 m
Data from the previous 72 hours. | See also: Recent months for locations in New South Wales
Date/Time
EST
Temp
°C
App
Temp
°C
Dew
Point
Rel
Hum
%
Delta-T
°C
Wind Press
QNH
hPa
Press
MSL
hPa
Rain
since 9 am
mm
Dir
 
Spd
km/h
Gust
km/h
Spd
kts
Gust
kts
23/12:00am 16.1 12.6 8.6 61 3.8 SSW 17 24 9 13 1020.4 1020.4 0.0
 
Date/Time
EST
Temp
°C
App
Temp
°C
Dew
Point
Rel
Hum
%
Delta-T
°C
Wind Press
QNH
hPa
Press
MSL
hPa
Rain
since 9 am
mm
Dir
 
Spd
km/h
Gust
km/h
Spd
kts
Gust
kts
22/11:30pm 16.3 12.7 8.5 60 4.0 SSW 17 28 9 15 1020.3 1020.3 0.0
22/11:00pm 16.2 12.8 9.2 63 3.6 SSW 17 26 9 14 1020.0 1020.0 0.0
22/10:30pm 16.4 12.6 9.8 65 3.5 SSW 20 33 11 18 1019.6 1019.6 0.0
22/10:00pm 16.9 12.0 9.8 63 3.7 SSW 26 48 14 26 1019.3 1019.3 0.0
22/09:30pm 16.8 13.1 10.2 65 3.5 SSW 20 35 11 19 1019.3 1019.3 0.0
22/09:00pm 16.4 13.3 10.3 67 3.2 SSW 17 33 9 18 1018.7 1018.7 0.0
22/08:30pm 16.6 13.3 9.5 63 3.7 SSW 17 28 9 15 1018.5 1018.5 0.0
22/08:00pm 16.6 13.9 8.8 60 4.0 SSW 13 24 7 13 1018.0 1018.0 0.0
22/07:30pm 16.7 14.2 8.1 57 4.4 SW 11 19 6 10 1017.5 1017.5 0.0
22/07:00pm 16.2 13.7 8.2 59 4.0 SW 11 17 6 9 1016.4 1016.4 0.0
22/06:30pm 16.0 13.8 8.0 59 4.0 SW 9 20 5 11 1016.2 1016.2 0.0
22/06:00pm 17.1 14.9 7.7 54 4.7 WSW 9 17 5 9 1015.8 1015.8 0.0
22/05:30pm 17.8 14.8 7.8 52 5.1 WSW 13 20 7 11 1015.3 1015.3 0.0
22/05:00pm 18.3 14.9 7.7 50 5.4 WSW 15 24 8 13 1014.9 1014.9 0.0
22/04:30pm 18.7 16.1 7.8 49 5.6 WSW 11 20 6 11 1014.5 1014.5 0.0
22/04:00pm 19.6 16.5 7.4 45 6.2 WSW 13 26 7 14 1014.2 1014.2 0.0
22/03:30pm 19.5 16.6 8.2 48 5.8 WSW 13 22 7 12 1013.9 1013.9 0.0
22/03:00pm 19.7 15.4 7.1 44 6.4 WSW 19 35 10 19 1013.8 1013.8 0.0
22/02:30pm 20.3 16.8 7.3 43 6.6 WSW 15 22 8 12 1013.6 1013.6 0.0
22/02:00pm 20.1 16.3 7.5 44 6.5 WSW 17 28 9 15 1013.5 1013.5 0.0
22/01:30pm 20.0 16.2 7.4 44 6.4 W 17 28 9 15 1013.3 1013.3 0.0
22/01:00pm 20.1 16.3 7.5 44 6.5 WSW 17 30 9 16 1013.5 1013.5 0.0
22/12:30pm 20.0 16.5 8.7 48 5.9 W 17 26 9 14 1013.7 1013.7 0.0
22/12:00pm 19.4 16.9 8.1 48 5.8 W 11 20 6 11 1014.0 1014.0 0.0
22/11:30am 18.8 15.7 7.3 47 5.8 W 13 24 7 13 1014.6 1014.6 0.0
22/11:00am 18.5 15.6 8.2 51 5.3 W 13 24 7 13 1015.1 1015.1 0.0
22/10:30am 17.9 15.4 8.2 53 5.0 W 11 24 6 13 1015.4 1015.4 0.0
22/10:00am 17.6 15.2 8.7 56 4.6 W 11 20 6 11 1015.7 1015.7 0.0
22/09:30am 16.6 14.7 9.1 61 3.9 W 9 17 5 9 1015.8 1015.8 0.0
22/09:00am 15.5 13.6 10.5 72 2.6 WSW 11 17 6 9 1015.7 1015.7 24.0
22/08:30am 14.3 14.2 12.0 86 1.2 W 4 15 2 8 1015.5 1015.5 24.0
22/08:00am 13.1 13.5 12.5 96 0.3 W 2 7 1 4 1015.4 1015.4 24.0
22/07:30am 12.9 13.4 12.7 99 0.1 WSW 2 7 1 4 1015.2 1015.2 24.0
22/07:18am 12.3 11.8 12.1 99 0.1 WSW 6 9 3 5 1015.0 1015.0 24.0
22/07:07am 12.1 11.9 11.9 99 0.1 W 4 7 2 4 1014.7 1014.7 24.0
22/07:00am 11.8 12.3 11.6 99 0.1 CALM 0 7 0 4 1014.8 1014.8 24.0
22/06:30am 11.5 11.9 11.3 99 0.1 CALM 0 0 0 0 1014.6 1014.6 24.0
22/06:16am 11.6 11.3 11.4 99 0.1 NNE 4 6 2 3 1014.5 1014.5 24.0
22/06:00am 11.5 11.2 11.3 99 0.1 NNW 4 7 2 4 1014.3 1014.3 24.0
22/05:33am 12.4 13.1 12.2 99 0.1 CALM 0 0 0 0 1014.3 1014.3 24.0
22/05:30am 12.1 12.7 11.9 99 0.1 CALM 0 0 0 0 1014.3 1014.3 24.0
22/05:23am 12.5 13.2 12.3 99 0.1 CALM 0 0 0 0 1014.3 1014.3 24.0
22/05:00am 13.1 13.3 12.9 99 0.1 NNW 4 9 2 5 1014.5 1014.5 24.0
22/04:30am 13.5 13.2 13.3 99 0.1 NNW 7 9 4 5 1014.4 1014.4 24.0
22/04:19am 13.9 13.7 13.7 99 0.1 NNW 7 9 4 5 1014.4 1014.4 24.0
22/04:00am 14.1 14.6 13.9 99 0.1 N 4 7 2 4 1014.2 1014.2 24.0
22/03:30am 13.9 13.9 13.7 99 0.1 N 6 9 3 5 1014.3 1014.3 24.0
22/03:00am 13.8 13.8 13.6 99 0.1 NW 6 9 3 5 1014.6 1014.6 24.0
22/02:30am 14.2 15.5 14.0 99 0.1 CALM 0 0 0 0 1014.7 1014.7 23.8
22/02:00am 14.3 15.2 14.1 99 0.1 WSW 2 7 1 4 1015.1 1015.1 23.8
22/01:30am 14.5 15.5 14.3 99 0.1 W 2 7 1 4 1015.3 1015.3 23.8
22/01:00am 14.5 14.7 14.3 99 0.1 NW 6 7 3 4 1015.5 1015.5 23.8
22/12:30am 14.7 16.1 14.5 99 0.1 CALM 0 0 0 0 1015.8 1015.8 23.8
22/12:00am 14.4 15.4 14.2 99 0.1 ENE 2 7 1 4 1015.9 1015.9 23.8
 
Date/Time
EST
Temp
°C
App
Temp
°C
Dew
Point
Rel
Hum
%
Delta-T
°C
Wind Press
QNH
hPa
Press
MSL
hPa
Rain
since 9 am
mm
Dir
 
Spd
km/h
Gust
km/h
Spd
kts
Gust
kts
21/11:35pm 14.3 15.6 14.0 98 0.2 CALM 0 0 0 0 1016.5 1016.5 23.8
21/11:30pm 14.7 16.1 14.4 98 0.2 CALM 0 0 0 0 1016.4 1016.4 23.8
21/11:00pm 15.1 16.7 14.9 99 0.1 CALM 0 0 0 0 1016.6 1016.6 23.8
21/10:30pm 15.2 16.8 15.0 99 0.1 CALM 0 0 0 0 1016.7 1016.7 23.8
21/10:00pm 15.3 17.0 15.1 99 0.1 CALM 0 0 0 0 1017.0 1017.0 23.8
21/09:30pm 15.2 16.1 15.0 99 0.1 SSW 4 9 2 5 1017.1 1017.1 23.8
21/09:00pm 15.1 16.7 14.9 99 0.1 CALM 0 0 0 0 1017.1 1017.1 23.8
21/08:30pm 15.0 16.6 14.8 99 0.1 CALM 0 0 0 0 1016.9 1016.9 23.8
21/08:00pm 15.1 16.7 14.9 99 0.1 CALM 0 0 0 0 1017.0 1017.0 23.8
21/07:32pm 15.0 16.6 14.8 99 0.1 CALM 0 0 0 0 1017.0 1017.0 23.8
21/07:30pm 15.0 16.6 14.8 99 0.1 CALM 0 0 0 0 1017.1 1017.1 23.8
21/07:00pm 15.1 16.7 14.9 99 0.1 CALM 0 0 0 0 1017.1 1017.1 23.8
21/06:52pm 15.0 16.5 14.7 98 0.2 CALM 0 0 0 0 1017.4 1017.4 23.8
21/06:30pm 15.2 16.8 15.0 99 0.1 CALM 0 0 0 0 1017.0 1017.0 23.8
21/06:00pm 15.2 16.8 15.0 99 0.1 CALM 0 6 0 3 1017.2 1017.2 23.8
21/05:30pm 15.3 15.3 15.1 99 0.1 NNE 9 13 5 7 1016.8 1016.8 23.6
21/05:02pm 15.4 15.4 15.2 99 0.1 N 9 15 5 8 1017.3 1017.3 22.8
21/05:01pm 15.4 15.4 15.2 99 0.1 NNE 9 15 5 8 1017.4 1017.4 22.8
21/05:00pm 15.4 15.0 15.2 99 0.1 NNE 11 15 6 8 1017.4 1017.4 22.8
21/04:30pm 15.6 16.0 15.4 99 0.1 N 7 9 4 5 1017.3 1017.3 22.2
21/04:14pm 15.6 16.0 15.4 99 0.1 N 7 9 4 5 1017.4 1017.4 21.6
21/04:00pm 15.6 17.0 15.3 98 0.2 N 2 6 1 3 1017.3 1017.3 21.2
21/03:56pm 15.7 17.1 15.4 98 0.2 NE 2 7 1 4 1017.4 1017.4 20.8
21/03:54pm 15.6 16.6 15.3 98 0.2 ENE 4 7 2 4 1017.4 1017.4 20.8
21/03:30pm 15.6 16.2 15.3 98 0.2 E 6 7 3 4 1017.0 1017.0 19.2
21/03:26pm 15.7 16.3 15.2 97 0.3 E 6 6 3 3 1017.2 1017.2 19.0
21/03:00pm 15.8 17.5 15.3 97 0.3 CALM 0 6 0 3 1017.5 1017.5 17.2
21/02:58pm 15.8 17.2 15.3 97 0.3 S 2 6 1 3 1017.5 1017.5 17.0
21/02:30pm 15.9 17.5 14.9 94 0.6 CALM 0 0 0 0 1017.3 1017.3 16.0
21/02:00pm 16.0 17.1 15.5 97 0.3 WSW 4 7 2 4 1017.0 1017.0 15.2
21/01:55pm 16.0 17.4 15.5 97 0.3 SW 2 7 1 4 1017.4 1017.4 15.2
21/01:43pm 15.7 17.2 14.7 94 0.6 CALM 0 6 0 3 1017.0 1017.0 14.8
21/01:30pm 15.9 16.5 15.3 96 0.3 W 6 7 3 4 1017.5 1017.5 14.2
21/01:00pm 15.9 15.9 15.1 95 0.5 ENE 9 13 5 7 1016.7 1016.7 14.2
21/12:30pm 16.0 16.0 15.2 95 0.5 ESE 9 15 5 8 1017.1 1017.1 13.8
21/12:07pm 16.1 18.0 15.8 98 0.2 CALM 0 0 0 0 1018.4 1018.4 13.4
21/12:00pm 16.1 17.6 15.8 98 0.2 SSE 2 9 1 5 1018.7 1018.7 13.2
21/11:30am 16.0 16.7 15.7 98 0.2 SSW 6 9 3 5 1019.3 1019.3 11.6
21/11:24am 15.9 16.4 15.6 98 0.2 SSW 7 9 4 5 1019.3 1019.3 11.2
21/11:20am 15.9 16.4 15.6 98 0.2 SW 7 9 4 5 1019.3 1019.3 11.0
21/11:00am 15.9 16.0 15.4 97 0.3 WSW 9 17 5 9 1019.6 1019.6 10.2
21/10:30am 16.1 16.8 15.6 97 0.3 WSW 6 7 3 4 1019.5 1019.5 8.8
21/10:19am 16.2 16.8 15.7 97 0.3 SSW 7 13 4 7 1019.5 1019.5 8.4
21/10:18am 16.2 16.8 15.9 98 0.2 SW 7 13 4 7 1019.4 1019.4 8.4
21/10:00am 16.5 16.5 16.3 99 0.1 SW 11 19 6 10 1019.3 1019.3 7.6
21/09:30am 16.7 17.2 16.5 99 0.1 SSE 9 13 5 7 1019.5 1019.5 3.6
21/09:00am 16.8 17.7 16.5 98 0.2 SSW 7 9 4 5 1019.3 1019.3 6.8
21/08:30am 16.6 17.6 16.3 98 0.2 SW 6 9 3 5 1019.3 1019.3 4.4
21/08:25am 16.7 18.1 16.4 98 0.2 W 4 9 2 5 1019.4 1019.4 3.6
21/08:19am 16.7 17.7 16.4 98 0.2 W 6 9 3 5 1019.6 1019.6 3.4
21/08:00am 16.6 17.4 16.3 98 0.2 SSW 7 9 4 5 1019.0 1019.0 2.6
21/07:51am 16.6 17.4 16.4 99 0.1 SSW 7 9 4 5 1019.0 1019.0 2.0
21/07:30am 16.6 18.8 16.4 99 0.1 CALM 0 2 0 1 1018.9 1018.9 1.4
21/07:00am 16.4 17.3 16.2 99 0.1 W 6 7 3 4 1018.5 1018.5 1.2
21/06:30am 16.4 16.8 16.2 99 0.1 S 9 11 5 6 1018.0 1018.0 1.2
21/06:16am 16.5 18.6 16.3 99 0.1 CALM 0 6 0 3 1018.2 1018.2 0.8
21/06:00am 16.4 17.7 16.2 99 0.1 SW 4 6 2 3 1018.1 1018.1 0.6
21/05:59am 16.4 17.7 16.2 99 0.1 SW 4 6 2 3 1018.1 1018.1 0.6
21/05:50am 16.3 18.3 16.1 99 0.1 CALM 0 0 0 0 1017.9 1017.9 0.2
21/05:37am 16.0 17.9 15.7 98 0.2 CALM 0 0 0 0 1017.7 1017.7 0.2
21/05:30am 16.0 17.9 15.7 98 0.2 CALM 0 0 0 0 1017.5 1017.5 0.2
21/05:00am 16.3 18.3 16.1 99 0.1 CALM 0 0 0 0 1017.1 1017.1 0.2
21/04:30am 16.0 16.6 15.7 98 0.2 NNW 7 9 4 5 1017.1 1017.1 0.2
21/04:00am 16.5 17.2 16.2 98 0.2 S 7 9 4 5 1017.0 1017.0 0.2
21/03:30am 16.3 17.0 15.5 95 0.5 NW 6 11 3 6 1017.4 1017.4 0.2
21/03:00am 17.2 16.9 16.4 95 0.5 S 13 20 7 11 1016.9 1016.9 0.0
21/02:30am 16.4 16.4 16.2 99 0.1 S 11 13 6 7 1017.1 1017.1 0.0
21/02:00am 16.2 18.2 16.0 99 0.1 CALM 0 0 0 0 1017.2 1017.2 0.0
21/01:30am 16.2 17.8 15.9 98 0.2 SE 2 6 1 3 1017.1 1017.1 0.0
21/01:19am 16.5 17.5 16.3 99 0.1 S 6 6 3 3 1017.1 1017.1 0.0
21/01:00am 15.9 17.7 15.4 97 0.3 CALM 0 6 0 3 1017.2 1017.2 0.0
21/12:30am 15.7 17.2 14.7 94 0.6 CALM 0 0 0 0 1017.1 1017.1 0.0
21/12:20am 16.4 17.9 15.8 96 0.4 SSW 2 6 1 3 1017.2 1017.2 0.0
21/12:00am 16.8 18.5 16.3 97 0.3 ENE 2 9 1 5 1017.3 1017.3 0.0
 
Date/Time
EST
Temp
°C
App
Temp
°C
Dew
Point
Rel
Hum
%
Delta-T
°C
Wind Press
QNH
hPa
Press
MSL
hPa
Rain
since 9 am
mm
Dir
 
Spd
km/h
Gust
km/h
Spd
kts
Gust
kts
20/11:30pm 17.0 19.2 16.4 96 0.4 CALM 0 0 0 0 1017.6 1017.6 0.0
20/11:00pm 17.2 19.3 16.2 94 0.6 CALM 0 0 0 0 1017.5 1017.5 0.0
20/10:30pm 17.8 20.2 17.0 95 0.5 CALM 0 0 0 0 1017.6 1017.6 0.0
20/10:00pm 17.7 19.8 16.2 91 0.9 CALM 0 0 0 0 1017.6 1017.6 0.0
20/09:30pm 18.5 20.8 16.8 90 1.0 CALM 0 0 0 0 1017.6 1017.6 0.0
20/09:00pm 19.1 21.6 17.2 89 1.2 CALM 0 0 0 0 1017.8 1017.8 0.0
20/08:30pm 18.5 20.7 16.5 88 1.2 CALM 0 0 0 0 1017.5 1017.5 0.0
20/08:00pm 19.3 20.4 16.7 85 1.6 NE 6 7 3 4 1017.2 1017.2 0.0
20/07:30pm 19.6 20.9 17.2 86 1.5 NE 6 7 3 4 1017.2 1017.2 0.0
20/07:00pm 19.4 21.9 17.2 87 1.3 CALM 0 0 0 0 1017.4 1017.4 0.0
20/06:30pm 19.7 21.6 16.7 83 1.8 N 2 6 1 3 1016.8 1016.8 0.0
20/06:00pm 19.8 20.1 16.1 79 2.2 N 9 11 5 6 1016.6 1016.6 0.0
20/05:30pm 21.7 21.5 16.6 73 3.1 NNE 13 17 7 9 1016.1 1016.1 0.0
20/05:00pm 21.8 22.2 16.3 71 3.3 NE 9 11 5 6 1016.2 1016.2 0.0
20/04:30pm 22.7 22.8 16.5 68 3.8 N 11 13 6 7 1016.4 1016.4 0.0
20/04:00pm 24.9 24.5 16.1 58 5.4 N 13 19 7 10 1016.3 1016.3 0.0
20/03:30pm 25.2 25.1 16.1 57 5.6 N 11 15 6 8 1016.0 1016.0 0.0
20/03:00pm 25.8 25.1 15.5 53 6.2 N 13 17 7 9 1016.0 1016.0 0.0
20/02:30pm 26.3 26.4 15.4 51 6.6 N 9 19 5 10 1016.1 1016.1 0.0
20/02:00pm 26.2 26.6 16.2 54 6.1 NW 9 19 5 10 1016.3 1016.3 0.0
20/01:30pm 25.5 25.5 15.2 53 6.2 NNW 9 15 5 8 1016.4 1016.4 0.0
20/01:00pm 25.1 25.5 15.4 55 5.9 NW 7 11 4 6 1016.8 1016.8 0.0
20/12:30pm 24.5 25.2 15.7 58 5.3 NNW 6 11 3 6 1017.5 1017.5 0.0
20/12:00pm 23.4 23.8 16.4 64 4.3 N 9 13 5 7 1017.8 1017.8 0.0
20/11:30am 22.2 23.1 16.2 69 3.6 WNW 6 9 3 5 1018.0 1018.0 0.0
20/11:00am 21.2 22.8 17.0 77 2.6 N 4 7 2 4 1018.4 1018.4 0.0
20/10:30am 19.7 21.6 16.7 83 1.8 NNE 2 7 1 4 1019.0 1019.0 0.0
20/10:00am 18.1 18.8 15.7 86 1.4 N 6 9 3 5 1019.4 1019.4 0.0
20/09:30am 17.0 17.7 15.7 92 0.8 NNE 6 9 3 5 1019.8 1019.8 0.0
20/09:04am 16.3 17.4 15.5 95 0.5 N 4 7 2 4 1020.0 1020.0 0.0
20/09:00am 15.9 16.9 15.3 96 0.3 NNE 4 7 2 4 1020.0 1020.0 0.2
20/08:49am 15.1 15.6 14.9 99 0.1 N 6 7 3 4 1019.9 1019.9 0.2
20/08:45am 14.9 16.0 14.7 99 0.1 N 2 7 1 4 1019.9 1019.9 0.2
20/08:30am 14.7 16.1 14.5 99 0.1 CALM 0 0 0 0 1019.9 1019.9 0.2
20/08:12am 14.0 15.2 13.8 99 0.1 CALM 0 0 0 0 1019.8 1019.8 0.2
20/08:00am 13.7 14.8 13.5 99 0.1 CALM 0 4 0 2 1019.7 1019.7 0.2
20/07:30am 12.4 12.7 12.2 99 0.1 SW 2 7 1 4 1019.4 1019.4 0.2
20/07:00am 11.7 12.2 11.5 99 0.1 CALM 0 0 0 0 1018.9 1018.9 0.2
20/06:41am 11.0 11.3 10.8 99 0.1 CALM 0 0 0 0 1018.8 1018.8 0.2
20/06:31am 11.3 11.7 11.1 99 0.1 CALM 0 0 0 0 1018.8 1018.8 0.2
20/06:30am 11.4 11.8 11.2 99 0.1 CALM 0 0 0 0 1018.8 1018.8 0.2
20/06:00am 11.8 11.2 11.6 99 0.1 SSW 6 7 3 4 1018.6 1018.6 0.2
20/05:55am 11.8 11.2 11.6 99 0.1 SSW 6 9 3 5 1018.5 1018.5 0.2
20/05:30am 11.9 12.1 11.7 99 0.1 NE 2 6 1 3 1018.3 1018.3 0.2
20/05:24am 12.3 13.0 12.1 99 0.1 CALM 0 0 0 0 1018.3 1018.3 0.2
20/05:00am 12.6 13.4 12.4 99 0.1 CALM 0 0 0 0 1018.3 1018.3 0.2
20/04:30am 12.4 11.9 12.2 99 0.1 NE 6 7 3 4 1018.1 1018.1 0.2
20/04:00am 12.6 12.2 12.4 99 0.1 NNW 6 7 3 4 1018.0 1018.0 0.2
20/03:30am 12.6 13.4 12.4 99 0.1 CALM 0 0 0 0 1017.7 1017.7 0.2
20/03:00am 13.2 14.1 13.0 99 0.1 CALM 0 0 0 0 1017.9 1017.9 0.2
20/02:30am 13.1 14.0 12.9 99 0.1 CALM 0 0 0 0 1018.0 1018.0 0.2
20/02:00am 12.8 13.5 12.3 97 0.3 CALM 0 0 0 0 1018.2 1018.2 0.2
20/01:30am 13.6 14.7 13.4 99 0.1 CALM 0 0 0 0 1018.2 1018.2 0.0
20/01:00am 13.8 14.9 13.5 98 0.2 CALM 0 0 0 0 1018.4 1018.4 0.0
20/12:30am 14.0 15.2 13.7 98 0.2 CALM 0 0 0 0 1018.7 1018.7 0.0
20/12:23am 14.3 15.6 14.0 98 0.2 CALM 0 0 0 0 1018.6 1018.6 0.0

Other Formats:

Comma delimited format used in spreadsheet applications
http://www.bom.gov.au/fwo/IDN60801/IDN60801.95570.axf

JavaScript Object Notation format (JSON) in row-major order
http://www.bom.gov.au/fwo/IDN60801/IDN60801.95570.json